Time;durP1;ratioP1;P1;durP2;ratioP2;P2;SDS_P1;SDS_P2;PMS_P1;PMS_P2;Temp;Humidity;BMP_temperature;BMP_pressure;BME280_temperature;BME280_humidity;BME280_pressure;Samples;Min_cycle;Max_cycle;Signal;HPM_P1;HPM_P2
2022/08/07 00:01:17;;;;;;;;;3.00;3.00;;;;;19.20;38.46;101585.63;4995370;28;45490;-76
2022/08/07 00:03:42;;;;;;;;;3.25;3.25;;;;;19.17;38.40;101586.59;4985227;28;45491;-75
2022/08/07 00:06:07;;;;;;;;;2.00;2.00;;;;;19.15;38.47;101583.97;4975557;28;46275;-76
2022/08/07 00:08:35;;;;;;;;;1.25;1.25;;;;;19.11;38.21;101581.50;4982384;28;45438;-74
2022/08/07 00:11:01;;;;;;;;;4.50;4.50;;;;;19.08;38.71;101581.59;4980137;28;45348;-75
2022/08/07 00:13:26;;;;;;;;;6.00;5.00;;;;;19.07;38.83;101590.56;4985244;28;45650;-75
2022/08/07 00:15:52;;;;;;;;;3.00;3.00;;;;;18.99;39.12;101564.97;4995234;28;46072;-75
2022/08/07 00:18:24;;;;;;;;;3.00;3.00;;;;;18.97;38.95;101579.34;4995714;28;45588;-76
2022/08/07 00:20:49;;;;;;;;;3.50;2.00;;;;;18.89;39.51;101581.44;4995310;28;45283;-75
2022/08/07 00:23:14;;;;;;;;;6.00;5.00;;;;;18.83;39.18;101577.19;4994559;28;45609;-76
2022/08/07 00:25:40;;;;;;;;;2.00;2.00;;;;;18.81;39.36;101573.69;4993621;28;45472;-76
2022/08/07 00:28:05;;;;;;;;;3.75;3.00;;;;;18.73;39.69;101573.13;4993587;28;45313;-77
2022/08/07 00:30:31;;;;;;;;;4.75;4.75;;;;;18.74;40.02;101582.91;4995408;28;45358;-76
2022/08/07 00:32:57;;;;;;;;;1.00;1.00;;;;;18.71;40.16;101569.63;4993800;28;45490;-77
2022/08/07 00:35:23;;;;;;;;;3.00;3.00;;;;;18.62;40.27;101563.69;4994276;28;45617;-77
2022/08/07 00:37:49;;;;;;;;;4.00;4.00;;;;;18.59;40.15;101566.47;4994833;28;45426;-75
2022/08/07 00:40:14;;;;;;;;;3.75;3.75;;;;;18.58;40.56;101567.41;4991786;28;45489;-75
2022/08/07 00:42:40;;;;;;;;;5.00;5.00;;;;;18.46;40.59;101555.38;4993760;28;45418;-75
2022/08/07 00:45:07;;;;;;;;;6.50;4.50;;;;;18.49;40.67;101561.53;4994647;28;45354;-75
2022/08/07 00:47:32;;;;;;;;;5.75;4.50;;;;;18.39;40.90;101561.03;4993730;28;45579;-75
2022/08/07 00:49:58;;;;;;;;;2.00;2.00;;;;;18.34;40.95;101566.53;4993156;28;45424;-76
2022/08/07 00:52:23;;;;;;;;;3.00;3.00;;;;;18.35;41.23;101560.25;4989551;28;45501;-76
2022/08/07 00:54:49;;;;;;;;;3.00;3.00;;;;;18.33;41.47;101555.91;4975444;28;45494;-74
2022/08/07 00:57:15;;;;;;;;;3.00;3.00;;;;;18.31;40.98;101558.63;4989284;28;45447;-75
2022/08/07 00:59:41;;;;;;;;;1.00;1.00;;;;;18.20;41.49;101548.28;4991506;28;45488;-75
2022/08/07 01:02:07;;;;;;;;;3.75;3.00;;;;;18.18;41.53;101558.19;4994135;28;45341;-76
2022/08/07 01:04:33;;;;;;;;;4.00;4.00;;;;;18.17;42.50;101548.41;4994029;28;46564;-75
2022/08/07 01:06:58;;;;;;;;;3.50;3.00;;;;;18.16;41.79;101560.06;4993688;28;45450;-75
2022/08/07 01:09:24;;;;;;;;;2.25;2.25;;;;;18.17;41.82;101553.75;4992222;28;45596;-75
2022/08/07 01:11:51;;;;;;;;;0.00;0.00;;;;;18.08;42.07;101552.31;4989356;28;45664;-75
2022/08/07 01:14:18;;;;;;;;;2.75;2.75;;;;;18.06;41.94;101545.25;4974859;28;45434;-75
2022/08/07 01:16:44;;;;;;;;;2.50;2.50;;;;;18.04;42.22;101553.34;4974827;28;45479;-75
2022/08/07 01:19:10;;;;;;;;;2.00;2.00;;;;;18.00;42.29;101545.47;4974708;28;45408;-76
2022/08/07 01:21:36;;;;;;;;;3.00;3.00;;;;;17.93;42.55;101547.47;4975396;28;45671;-76
2022/08/07 01:24:02;;;;;;;;;3.00;3.00;;;;;17.86;42.57;101540.59;4992758;28;46740;-75
2022/08/07 01:26:27;;;;;;;;;2.75;2.75;;;;;17.84;43.14;101537.97;4994734;28;45355;-75
2022/08/07 01:28:54;;;;;;;;;3.25;3.25;;;;;17.85;42.78;101539.69;4994752;28;45328;-76
2022/08/07 01:31:26;;;;;;;;;3.00;3.00;;;;;17.84;42.71;101540.66;4993588;28;45545;-76
2022/08/07 01:33:52;;;;;;;;;2.00;2.00;;;;;17.80;42.68;101544.34;4993749;28;47016;-78
2022/08/07 01:36:18;;;;;;;;;2.75;2.75;;;;;17.72;42.83;101527.72;4993994;28;45403;-74
2022/08/07 01:38:44;;;;;;;;;3.50;3.50;;;;;17.70;42.84;101537.56;4992701;28;45656;-76
2022/08/07 01:41:10;;;;;;;;;3.00;2.75;;;;;17.72;43.09;101544.63;4981104;28;45538;-76
2022/08/07 01:43:36;;;;;;;;;6.00;3.00;;;;;17.65;43.52;101544.88;4974498;28;46708;-77
2022/08/07 01:46:02;;;;;;;;;3.00;3.00;;;;;17.63;43.51;101536.03;4975061;28;45367;-77
2022/08/07 01:48:28;;;;;;;;;3.00;3.00;;;;;17.66;43.36;101539.50;4974958;28;45455;-76
2022/08/07 01:51:17;;;;;;;;;2.00;2.00;;;;;17.70;43.40;101542.91;4976120;28;45456;-76
2022/08/07 01:53:48;;;;;;;;;3.75;3.75;;;;;17.69;43.37;101543.88;4983800;28;45462;-77
2022/08/07 01:56:42;;;;;;;;;3.00;3.00;;;;;17.67;43.48;101543.03;4975309;28;45387;-78
2022/08/07 01:59:17;;;;;;;;;3.75;2.25;;;;;17.61;43.73;101553.94;4982129;28;45468;-78
2022/08/07 02:01:56;;;;;;;;;4.75;3.75;;;;;17.54;43.51;101548.78;4996925;28;45486;-76
2022/08/07 02:04:29;;;;;;;;;1.50;1.50;;;;;17.54;43.67;101555.94;4997002;28;45342;-75
2022/08/07 02:06:57;;;;;;;;;3.75;3.75;;;;;17.50;44.05;101548.94;4995906;28;45354;-76
2022/08/07 02:09:25;;;;;;;;;2.75;2.75;;;;;17.46;44.30;101548.19;4997297;28;45307;-76
2022/08/07 02:11:51;;;;;;;;;6.75;4.00;;;;;17.43;44.32;101542.06;4998014;28;45518;-75
2022/08/07 02:14:19;;;;;;;;;3.00;3.00;;;;;17.42;44.16;101556.34;4997305;28;46007;-75
2022/08/07 02:16:47;;;;;;;;;6.50;3.00;;;;;17.43;44.45;101550.97;4997590;28;45382;-76
2022/08/07 02:19:15;;;;;;;;;6.00;4.00;;;;;17.38;44.29;101548.44;4995565;28;45735;-75
2022/08/07 02:21:42;;;;;;;;;3.50;3.50;;;;;17.33;44.73;101546.84;4989211;28;45387;-75
2022/08/07 02:24:08;;;;;;;;;3.00;3.00;;;;;17.32;44.62;101545.09;4995425;28;45944;-75
2022/08/07 02:26:37;;;;;;;;;4.00;3.00;;;;;17.29;44.50;101550.53;4997495;28;45443;-76
2022/08/07 02:29:09;;;;;;;;;2.50;2.50;;;;;17.27;44.88;101547.03;4997682;28;45427;-75
2022/08/07 02:31:36;;;;;;;;;4.50;3.50;;;;;17.26;44.84;101537.28;4995954;28;45411;-77
2022/08/07 02:34:03;;;;;;;;;2.00;2.00;;;;;17.27;45.05;101552.38;4995368;28;46566;-75
2022/08/07 02:36:30;;;;;;;;;3.50;3.50;;;;;17.20;45.39;101547.25;4994915;28;45547;-75
2022/08/07 02:38:57;;;;;;;;;2.00;2.00;;;;;17.16;45.12;101542.06;4996307;28;45505;-75
2022/08/07 02:41:23;;;;;;;;;3.00;3.00;;;;;17.14;45.76;101542.09;4991107;28;45552;-76
2022/08/07 02:43:51;;;;;;;;;2.00;0.50;;;;;17.08;45.81;101528.06;4996944;28;46149;-74
2022/08/07 02:46:19;;;;;;;;;2.00;2.00;;;;;17.05;45.36;101539.72;4996202;28;45422;-76
2022/08/07 02:48:45;;;;;;;;;3.50;2.50;;;;;17.02;46.18;101545.13;4996251;28;45998;-76
2022/08/07 02:51:15;;;;;;;;;1.75;1.75;;;;;16.93;46.23;101535.66;4984180;28;45501;-75
2022/08/07 02:53:44;;;;;;;;;4.00;4.00;;;;;16.90;46.38;101532.19;4989042;28;45536;-75
2022/08/07 02:56:13;;;;;;;;;4.00;3.00;;;;;16.88;46.90;101529.56;4996754;28;45468;-76
2022/08/07 02:58:41;;;;;;;;;3.00;1.25;;;;;16.85;46.56;101535.84;4997029;28;45480;-75
2022/08/07 03:01:08;;;;;;;;;0.50;0.50;;;;;16.84;46.66;101528.75;4994785;28;45838;-75
2022/08/07 03:03:35;;;;;;;;;2.00;2.00;;;;;16.86;46.62;101532.28;4994342;28;46199;-75
2022/08/07 03:06:01;;;;;;;;;2.75;2.50;;;;;16.83;46.84;101526.13;4996513;28;45434;-76
2022/08/07 03:08:27;;;;;;;;;4.50;3.25;;;;;16.75;46.60;101529.03;4995630;28;45402;-75
2022/08/07 03:10:54;;;;;;;;;2.00;2.00;;;;;16.74;46.88;101531.75;4984275;28;45401;-76
2022/08/07 03:13:20;;;;;;;;;4.00;4.00;;;;;16.71;47.52;101532.72;4976888;28;46149;-75
2022/08/07 03:15:47;;;;;;;;;3.00;3.00;;;;;16.63;47.24;101522.28;4976412;28;45343;-75
2022/08/07 03:18:14;;;;;;;;;3.00;3.00;;;;;16.64;47.34;101531.16;4986564;28;45512;-73
2022/08/07 03:20:40;;;;;;;;;3.00;3.00;;;;;16.62;47.73;101525.84;4994657;28;45529;-75
2022/08/07 03:23:07;;;;;;;;;2.00;2.00;;;;;16.55;47.80;101531.44;4996255;28;45929;-75
2022/08/07 03:25:36;;;;;;;;;4.50;4.25;;;;;16.55;47.95;101531.44;4995993;28;45496;-76
2022/08/07 03:28:03;;;;;;;;;2.00;2.00;;;;;16.49;47.71;101522.69;4994909;28;45494;-74
2022/08/07 03:30:31;;;;;;;;;4.25;4.25;;;;;16.49;47.91;101520.03;4995607;28;45641;-74
2022/08/07 03:32:59;;;;;;;;;3.75;3.00;;;;;16.50;48.08;101531.56;4995923;28;46284;-76
2022/08/07 03:35:27;;;;;;;;;2.75;2.75;;;;;16.48;47.91;101528.94;4995844;28;45364;-75
2022/08/07 03:37:57;;;;;;;;;3.00;3.00;;;;;16.44;48.12;101534.41;4993688;28;45337;-75
2022/08/07 03:40:24;;;;;;;;;2.50;2.50;;;;;16.37;48.59;101533.75;4983652;28;45896;-75
2022/08/07 03:42:51;;;;;;;;;2.50;2.00;;;;;16.31;48.56;101525.91;4975973;28;45952;-75
2022/08/07 03:45:18;;;;;;;;;4.50;4.50;;;;;16.30;48.29;101526.81;4975833;28;45483;-74
2022/08/07 03:47:43;;;;;;;;;3.50;3.50;;;;;16.33;48.65;101521.41;4985314;28;45620;-75
2022/08/07 03:50:09;;;;;;;;;3.00;3.00;;;;;16.33;48.55;101534.72;4994894;28;45355;-75
2022/08/07 03:52:36;;;;;;;;;5.50;4.25;;;;;16.28;48.79;101534.00;4993839;28;46559;-75
2022/08/07 03:55:02;;;;;;;;;2.75;2.75;;;;;16.24;49.18;101533.19;4989850;28;45346;-75
2022/08/07 03:57:30;;;;;;;;;3.00;3.00;;;;;16.21;49.31;101541.28;4977300;28;45427;-75
2022/08/07 03:59:56;;;;;;;;;2.75;2.75;;;;;16.17;49.29;101532.50;4994556;28;45663;-73
2022/08/07 04:02:22;;;;;;;;;3.00;2.00;;;;;16.13;49.69;101538.84;4995527;28;46395;-75
2022/08/07 04:04:49;;;;;;;;;3.50;3.50;;;;;16.12;49.43;101545.09;4994889;28;45320;-75
2022/08/07 04:07:16;;;;;;;;;4.00;4.00;;;;;16.10;49.62;101536.25;4995354;28;45706;-76
2022/08/07 04:09:42;;;;;;;;;2.50;2.50;;;;;16.13;49.62;101537.97;4993773;28;45550;-75
2022/08/07 04:12:08;;;;;;;;;2.50;2.00;;;;;16.09;49.65;101544.31;4994735;28;45502;-75
2022/08/07 04:14:34;;;;;;;;;3.50;3.50;;;;;16.07;50.04;101531.00;4992897;28;45476;-75
2022/08/07 04:17:00;;;;;;;;;6.50;4.50;;;;;16.03;49.76;101536.47;4993032;28;45470;-75
2022/08/07 04:19:25;;;;;;;;;3.00;3.00;;;;;16.01;50.19;101530.31;4995287;28;45436;-74
2022/08/07 04:21:52;;;;;;;;;6.00;4.00;;;;;16.01;49.98;101541.00;4994396;28;45474;-75
2022/08/07 04:24:19;;;;;;;;;2.50;2.50;;;;;16.00;50.03;101545.41;4991012;28;45459;-75
2022/08/07 04:26:44;;;;;;;;;1.75;1.00;;;;;15.85;50.39;101513.84;4975429;28;45492;-76
2022/08/07 04:29:10;;;;;;;;;3.00;2.00;;;;;15.90;50.21;101523.47;4975489;28;45619;-74
2022/08/07 04:31:39;;;;;;;;;2.25;2.25;;;;;15.99;50.24;101527.69;4992087;28;45369;-75
2022/08/07 04:34:05;;;;;;;;;2.25;2.25;;;;;16.03;50.01;101528.47;4987356;28;45483;-75
2022/08/07 04:36:31;;;;;;;;;3.25;2.50;;;;;16.07;50.43;101541.69;4974954;28;45407;-75
2022/08/07 04:38:56;;;;;;;;;2.00;2.00;;;;;16.10;50.02;101536.25;4974570;28;45555;-75
2022/08/07 04:41:22;;;;;;;;;3.50;3.00;;;;;16.20;50.09;101531.56;4975486;28;45347;-76
2022/08/07 04:43:49;;;;;;;;;4.50;3.75;;;;;16.45;49.47;101529.03;4975146;28;45351;-76
2022/08/07 04:46:38;;;;;;;;;2.75;2.75;;;;;16.75;48.47;101538.84;4993345;28;45562;-75
2022/08/07 04:49:19;;;;;;;;;2.25;2.00;;;;;17.08;48.17;101528.06;4992567;28;45458;-75
2022/08/07 04:52:12;;;;;;;;;6.00;6.00;;;;;17.42;47.22;101533.16;4992999;28;47448;-76
2022/08/07 04:54:46;;;;;;;;;4.75;3.75;;;;;17.74;46.57;101536.53;4994251;28;45519;-76
2022/08/07 04:57:26;;;;;;;;;4.00;4.00;;;;;18.04;45.62;101539.97;4994025;28;45423;-76
2022/08/07 05:00:01;;;;;;;;;4.00;1.25;;;;;18.51;44.89;101532.91;4987998;28;45411;-76
2022/08/07 05:02:45;;;;;;;;;3.00;3.00;;;;;18.79;44.03;101538.06;4994932;28;45414;-75
2022/08/07 05:05:21;;;;;;;;;3.25;3.25;;;;;19.21;43.02;101537.31;4995598;28;45355;-76
2022/08/07 05:07:57;;;;;;;;;3.00;2.75;;;;;19.60;42.53;101528.53;4994329;28;45527;-75
2022/08/07 05:10:31;;;;;;;;;2.00;2.00;;;;;19.88;41.71;101544.31;4992735;28;45424;-76
2022/08/07 05:13:15;;;;;;;;;4.00;2.50;;;;;20.43;40.80;101548.16;4994337;28;46461;-76
2022/08/07 05:15:43;;;;;;;;;4.50;3.50;;;;;20.86;40.11;101551.56;4993567;28;45453;-76
2022/08/07 05:18:18;;;;;;;;;3.25;3.25;;;;;21.18;39.29;101542.84;4987833;28;45495;-75
2022/08/07 05:20:48;;;;;;;;;3.00;3.00;;;;;21.72;38.44;101546.44;4981732;28;45518;-76
2022/08/07 05:23:19;;;;;;;;;2.75;2.75;;;;;22.20;37.61;101552.00;4987996;28;45393;-75
2022/08/07 05:25:47;;;;;;;;;3.00;3.00;;;;;22.47;37.06;101543.41;4992934;28;45526;-76
2022/08/07 05:28:14;;;;;;;;;3.25;3.25;;;;;22.96;36.40;101556.00;4992346;28;45538;-74
2022/08/07 05:30:41;;;;;;;;;2.50;2.50;;;;;23.33;35.96;101553.88;4991980;28;45444;-75
2022/08/07 05:33:09;;;;;;;;;2.75;2.75;;;;;23.56;35.18;101550.72;4993634;28;45406;-76
2022/08/07 05:35:36;;;;;;;;;2.50;2.50;;;;;24.09;34.10;101553.81;4995254;28;45496;-76
2022/08/07 05:38:05;;;;;;;;;3.00;3.00;;;;;24.36;33.92;101558.47;4995556;28;45492;-76
2022/08/07 05:40:32;;;;;;;;;3.00;3.00;;;;;24.73;33.23;101552.59;4996844;28;45523;-76
2022/08/07 05:42:58;;;;;;;;;3.50;3.00;;;;;24.77;32.44;101549.59;4996786;28;45605;-75
2022/08/07 05:45:25;;;;;;;;;2.75;2.75;;;;;25.07;32.73;101551.28;4993065;28;45331;-76
2022/08/07 05:47:52;;;;;;;;;3.75;2.00;;;;;25.42;32.29;101552.63;4996380;28;45512;-76
2022/08/07 05:50:18;;;;;;;;;2.75;2.75;;;;;25.47;31.59;101555.88;4996488;28;45488;-76
2022/08/07 05:52:43;;;;;;;;;2.00;2.00;;;;;25.56;31.59;101552.56;4992544;28;46500;-76
2022/08/07 05:55:09;;;;;;;;;3.00;3.00;;;;;25.67;31.07;101547.25;4977260;28;45395;-76
2022/08/07 05:57:36;;;;;;;;;3.00;3.00;;;;;25.75;31.43;101560.28;4979719;28;45349;-75
2022/08/07 06:00:03;;;;;;;;;4.50;4.00;;;;;25.96;31.17;101559.75;4997536;28;45414;-76
2022/08/07 06:02:33;;;;;;;;;3.75;3.75;;;;;25.81;31.11;101556.28;4996337;28;46272;-75
2022/08/07 06:05:03;;;;;;;;;4.00;4.00;;;;;26.08;30.49;101561.63;4997131;28;45430;-76
2022/08/07 06:07:30;;;;;;;;;3.50;3.50;;;;;26.68;30.77;101567.38;4997459;28;45589;-73
2022/08/07 06:09:56;;;;;;;;;2.00;2.00;;;;;27.30;29.83;101563.69;4996017;28;45446;-74
2022/08/07 06:12:21;;;;;;;;;4.50;3.25;;;;;27.70;28.97;101560.69;4994549;28;45439;-74
2022/08/07 06:14:47;;;;;;;;;2.00;2.00;;;;;28.29;27.76;101553.41;4996666;28;45309;-76
2022/08/07 06:17:14;;;;;;;;;2.75;2.75;;;;;28.69;28.00;101547.50;5012311;28;45593;-75
2022/08/07 06:19:40;;;;;;;;;2.00;2.00;;;;;28.99;26.55;101548.69;4996899;28;45479;-74
2022/08/07 06:22:07;;;;;;;;;3.00;3.00;;;;;29.34;26.28;101558.50;4993583;28;46342;-76
2022/08/07 06:24:32;;;;;;;;;2.75;2.75;;;;;29.55;25.86;101545.78;4985142;28;45506;-75
2022/08/07 06:26:58;;;;;;;;;3.00;3.00;;;;;29.97;25.15;101544.94;4970567;28;45595;-74
2022/08/07 06:29:27;;;;;;;;;1.00;1.00;;;;;30.38;25.29;101539.53;4992827;28;45478;-76
2022/08/07 06:31:52;;;;;;;;;2.50;2.50;;;;;30.70;24.18;101541.28;4990350;28;45446;-77
2022/08/07 06:34:18;;;;;;;;;2.50;2.50;;;;;30.77;24.11;101543.28;4990741;28;45513;-75
2022/08/07 06:36:43;;;;;;;;;2.75;2.75;;;;;31.05;24.20;101545.41;4989895;28;45372;-79
2022/08/07 06:39:09;;;;;;;;;2.00;2.00;;;;;31.42;23.95;101545.56;4981281;28;45371;-76
2022/08/07 06:42:07;;;;;;;;;3.00;3.00;;;;;31.79;23.76;101536.63;4983227;28;46153;-76
2022/08/07 06:44:34;;;;;;;;;1.00;1.00;;;;;32.17;23.17;101536.72;4989046;28;45414;-75
2022/08/07 06:47:01;;;;;;;;;2.25;2.25;;;;;32.30;22.80;101531.78;4988384;28;45454;-76
2022/08/07 06:49:26;;;;;;;;;2.25;2.00;;;;;32.42;23.05;101535.19;4982691;28;45443;-76
2022/08/07 06:51:54;;;;;;;;;1.25;1.25;;;;;32.39;22.27;101541.81;4983676;28;45448;-76
2022/08/07 06:54:19;;;;;;;;;1.50;1.50;;;;;32.36;22.44;101542.13;4978465;28;45496;-76
2022/08/07 06:56:46;;;;;;;;;2.00;2.00;;;;;32.65;22.85;101546.63;4987971;28;45495;-75
2022/08/07 06:59:21;;;;;;;;;0.00;0.00;;;;;32.76;22.36;101534.59;4976774;28;45424;-86
2022/08/07 07:01:48;;;;;;;;;2.00;1.00;;;;;32.72;22.06;101530.44;4988118;28;47812;-74
2022/08/07 07:04:13;;;;;;;;;2.25;1.00;;;;;33.01;21.67;101532.13;4994156;28;45476;-76
2022/08/07 07:06:39;;;;;;;;;2.00;2.00;;;;;33.43;21.60;101539.75;4993518;28;45661;-76
2022/08/07 07:09:27;;;;;;;;;2.25;1.75;;;;;33.28;21.59;101544.91;4995553;28;45409;-76
2022/08/07 07:12:16;;;;;;;;;1.75;1.75;;;;;33.47;21.68;101544.75;4991501;28;46920;-78
2022/08/07 07:15:09;;;;;;;;;0.75;0.75;;;;;33.56;21.32;101539.34;4976294;28;45550;-76
2022/08/07 07:17:50;;;;;;;;;1.00;1.00;;;;;33.72;20.45;101541.34;4990440;28;45490;-78
2022/08/07 07:20:19;;;;;;;;;1.00;1.00;;;;;33.74;21.14;101536.59;4992438;28;45598;-80
2022/08/07 07:22:46;;;;;;;;;2.00;2.00;;;;;33.91;21.00;101545.81;4975691;28;46352;-76
2022/08/07 07:25:14;;;;;;;;;3.50;3.00;;;;;33.75;20.82;101539.16;4990033;28;45506;-77
2022/08/07 07:27:47;;;;;;;;;2.00;2.00;;;;;33.65;20.56;101543.88;4993018;28;45491;-77
2022/08/07 07:30:13;;;;;;;;;2.00;2.00;;;;;33.68;21.23;101542.69;4996377;28;45434;-78
2022/08/07 07:32:41;;;;;;;;;1.00;1.00;;;;;33.63;21.24;101535.81;4995654;28;45465;-77
2022/08/07 07:35:09;;;;;;;;;1.00;1.00;;;;;33.76;21.21;101529.94;4994940;28;45477;-75
2022/08/07 07:37:38;;;;;;;;;1.00;1.00;;;;;33.81;21.53;101533.09;4993510;28;45483;-76
2022/08/07 07:40:09;;;;;;;;;0.25;0.25;;;;;33.73;20.90;101540.38;4994256;28;45486;-77
2022/08/07 07:42:36;;;;;;;;;2.00;2.00;;;;;33.65;20.72;101532.91;4994822;28;46490;-77
2022/08/07 07:45:04;;;;;;;;;1.25;1.25;;;;;33.69;20.60;101531.56;4995257;28;45412;-76
2022/08/07 07:47:35;;;;;;;;;2.00;1.25;;;;;33.93;20.78;101535.53;4994913;28;45347;-77
2022/08/07 07:50:03;;;;;;;;;2.00;1.00;;;;;34.06;19.83;101526.88;4994967;28;45450;-76
2022/08/07 07:52:29;;;;;;;;;1.00;1.00;;;;;34.10;19.86;101528.25;4994400;28;45542;-75
2022/08/07 07:54:56;;;;;;;;;2.75;1.25;;;;;33.98;19.83;101513.97;4992690;28;45441;-76
2022/08/07 07:57:23;;;;;;;;;2.00;1.00;;;;;33.76;20.62;101529.94;4994367;28;45454;-77
2022/08/07 07:59:50;;;;;;;;;1.25;0.25;;;;;33.81;20.66;101523.97;4994815;28;45337;-75
2022/08/07 08:02:17;;;;;;;;;0.75;0.00;;;;;34.15;21.39;101525.91;4994708;28;45533;-76
2022/08/07 08:04:44;;;;;;;;;1.00;1.00;;;;;34.56;19.36;101517.91;4994237;28;45494;-76
2022/08/07 08:07:10;;;;;;;;;1.00;1.00;;;;;34.79;19.18;101514.56;4995010;28;45466;-77
2022/08/07 08:09:37;;;;;;;;;1.75;0.50;;;;;34.76;19.36;101521.25;4993467;28;45576;-78
2022/08/07 08:12:04;;;;;;;;;1.75;1.75;;;;;35.07;19.05;101526.09;4994851;28;45423;-77
2022/08/07 08:14:34;;;;;;;;;1.00;1.00;;;;;35.25;18.75;101525.94;4993610;28;45366;-76
2022/08/07 08:17:01;;;;;;;;;1.00;1.00;;;;;35.05;19.45;101519.94;4995272;28;45533;-76
2022/08/07 08:19:30;;;;;;;;;1.00;1.00;;;;;35.05;18.92;101518.03;4994827;28;45547;-77
2022/08/07 08:27:33;;;;;;;;;0.25;0.00;;;;;34.91;18.66;101510.47;4994102;28;45403;-78
2022/08/07 08:30:16;;;;;;;;;0.00;0.00;;;;;34.98;18.28;101499.66;4992938;28;45984;-77
2022/08/07 08:32:58;;;;;;;;;0.00;0.00;;;;;35.14;19.18;101505.19;4993932;28;45349;-78
2022/08/07 08:35:26;;;;;;;;;0.00;0.00;;;;;35.16;19.34;101505.00;4994099;28;45492;-75
2022/08/07 08:37:58;;;;;;;;;1.00;1.00;;;;;35.30;19.03;101496.09;4994347;28;45399;-77
2022/08/07 08:40:31;;;;;;;;;0.75;0.75;;;;;35.28;18.48;101495.44;4993724;28;45489;-77
2022/08/07 08:43:14;;;;;;;;;0.00;0.00;;;;;35.17;19.06;101501.25;4994047;28;46115;-76
2022/08/07 08:45:52;;;;;;;;;0.50;0.50;;;;;35.18;18.85;101498.31;4994021;28;45414;-75
2022/08/07 08:48:41;;;;;;;;;0.50;0.50;;;;;35.15;19.16;101493.19;4994114;28;45470;-77
2022/08/07 08:51:09;;;;;;;;;0.00;0.00;;;;;35.25;18.66;101497.63;4994387;28;45515;-77
2022/08/07 08:53:51;;;;;;;;;0.00;0.00;;;;;35.30;17.81;101496.09;4993393;28;45279;-76
2022/08/07 08:56:22;;;;;;;;;0.00;0.00;;;;;35.28;18.37;101492.69;4994148;28;45395;-76
2022/08/07 08:59:02;;;;;;;;;1.25;0.00;;;;;35.19;18.14;101489.03;4994010;28;45386;-76
2022/08/07 09:01:42;;;;;;;;;0.00;0.00;;;;;35.31;17.96;101497.84;4993890;28;45461;-76
2022/08/07 09:04:56;;;;;;;;;0.00;0.00;;;;;35.43;17.89;101495.59;4993738;28;45527;-76
2022/08/07 09:07:35;;;;;;;;;0.00;0.00;;;;;35.42;17.79;101493.88;4993495;28;45497;-75
2022/08/07 09:10:16;;;;;;;;;1.50;1.50;;;;;35.33;18.08;101490.31;4997141;28;45395;-76
2022/08/07 09:12:50;;;;;;;;;2.00;0.00;;;;;35.54;17.32;101484.25;4997572;28;45501;-75
2022/08/07 09:15:51;;;;;;;;;2.00;1.00;;;;;35.47;18.05;101494.25;4997471;28;46646;-77
2022/08/07 09:18:53;;;;;;;;;0.00;0.00;;;;;35.42;16.88;101493.88;4996980;28;45469;-76
2022/08/07 09:21:53;;;;;;;;;0.00;0.00;;;;;35.16;17.74;101494.88;4997049;28;45481;-77
2022/08/07 09:24:31;;;;;;;;;0.00;0.00;;;;;35.32;17.37;101493.19;4996909;28;45372;-76
2022/08/07 09:27:08;;;;;;;;;0.00;0.00;;;;;35.13;17.54;101499.84;4996334;28;45456;-77
2022/08/07 09:30:05;;;;;;;;;0.00;0.00;;;;;35.21;17.81;101487.00;4995692;28;45486;-75
2022/08/07 09:32:56;;;;;;;;;0.00;0.00;;;;;34.85;16.89;101491.94;4997201;28;45438;-76
2022/08/07 09:35:40;;;;;;;;;1.00;1.00;;;;;34.70;17.70;101500.78;4996750;28;45422;-76
2022/08/07 09:38:10;;;;;;;;;0.00;0.00;;;;;34.97;17.79;101498.81;4997158;28;46029;-76
2022/08/07 09:41:06;;;;;;;;;0.25;0.25;;;;;34.69;17.66;101492.72;4996400;28;45415;-76
2022/08/07 09:44:00;;;;;;;;;0.00;0.00;;;;;34.68;17.82;101490.97;4996879;28;45323;-77
2022/08/07 09:46:44;;;;;;;;;0.25;0.25;;;;;34.89;18.01;101487.81;4996783;28;45525;-77
2022/08/07 09:49:36;;;;;;;;;1.00;1.00;;;;;34.87;18.37;101495.38;4996392;28;45501;-77
2022/08/07 09:52:16;;;;;;;;;0.25;0.25;;;;;34.86;17.91;101489.03;4997145;28;45398;-77
2022/08/07 09:54:53;;;;;;;;;1.25;1.25;;;;;35.08;17.91;101486.63;4997232;28;45436;-76
2022/08/07 09:57:37;;;;;;;;;1.00;1.00;;;;;34.84;18.19;101480.06;4997056;28;45387;-77
2022/08/07 10:00:09;;;;;;;;;0.00;0.00;;;;;34.83;18.46;101478.38;4995875;28;46191;-77
2022/08/07 10:02:43;;;;;;;;;1.75;1.75;;;;;35.03;17.97;101476.16;4996400;28;45573;-76
2022/08/07 10:05:47;;;;;;;;;0.00;0.00;;;;;34.95;18.07;101478.03;4996088;28;45479;-77
2022/08/07 10:08:49;;;;;;;;;0.00;0.00;;;;;34.51;17.84;101474.50;4935799;28;45601;-75
2022/08/07 10:11:39;;;;;;;;;0.00;0.00;;;;;34.33;18.24;101466.38;4919263;28;46290;-77
2022/08/07 10:14:33;;;;;;;;;1.00;1.00;;;;;34.34;18.13;101470.81;4935719;28;45381;-76
2022/08/07 10:17:25;;;;;;;;;1.25;1.25;;;;;34.11;19.09;101470.53;4935562;28;45466;-77
2022/08/07 10:19:59;;;;;;;;;1.00;1.00;;;;;34.21;18.64;101458.56;4934170;28;45422;-77
2022/08/07 10:22:56;;;;;;;;;2.00;2.00;;;;;34.10;18.44;101449.63;4935324;28;45391;-76
2022/08/07 10:25:42;;;;;;;;;2.00;2.00;;;;;34.15;17.60;101463.69;4935448;28;45533;-77
2022/08/07 10:28:38;;;;;;;;;2.00;2.00;;;;;34.02;18.69;101457.81;4934923;28;45477;-76
2022/08/07 10:31:35;;;;;;;;;0.50;0.50;;;;;34.04;18.19;101461.22;4935261;28;45618;-77
2022/08/07 10:34:12;;;;;;;;;2.00;2.00;;;;;34.18;18.23;101457.88;4915720;28;45617;-77
2022/08/07 10:36:58;;;;;;;;;3.00;2.00;;;;;33.95;18.62;101435.69;4916614;28;45391;-77
2022/08/07 10:39:32;;;;;;;;;2.00;1.50;;;;;33.97;18.45;101469.25;4915952;28;45415;-77
2022/08/07 10:42:11;;;;;;;;;3.00;3.00;;;;;34.02;18.53;101446.00;4916585;28;45686;-77
2022/08/07 10:44:46;;;;;;;;;2.25;1.25;;;;;33.93;18.01;101448.66;4937115;28;47139;-78
2022/08/07 10:47:17;;;;;;;;;1.50;1.50;;;;;34.08;18.22;101457.16;4953764;28;45413;-78
2022/08/07 10:49:55;;;;;;;;;1.00;1.00;;;;;34.24;18.22;101452.75;4954254;28;45521;-77
2022/08/07 10:52:52;;;;;;;;;3.25;2.25;;;;;34.26;18.36;101442.53;4954147;28;45475;-77
2022/08/07 10:55:25;;;;;;;;;1.25;1.25;;;;;34.00;18.90;101455.22;4953732;28;46058;-77
2022/08/07 10:58:12;;;;;;;;;3.00;3.00;;;;;33.98;18.55;101445.44;4954462;28;45414;-76
2022/08/07 11:01:09;;;;;;;;;1.00;1.00;;;;;34.17;17.94;101430.63;4954063;28;45539;-76
2022/08/07 11:03:41;;;;;;;;;0.50;0.50;;;;;34.04;18.80;101422.84;4954066;28;45546;-76
2022/08/07 11:06:23;;;;;;;;;2.00;2.00;;;;;33.98;18.03;101398.84;4954956;28;45475;-76
2022/08/07 11:09:08;;;;;;;;;1.00;1.00;;;;;33.89;18.48;101425.38;4957281;28;45360;-76
2022/08/07 11:11:51;;;;;;;;;3.00;3.00;;;;;33.96;20.06;101428.31;4976231;28;45530;-76
2022/08/07 11:14:25;;;;;;;;;3.00;3.00;;;;;33.99;18.85;101419.75;4975833;28;45607;-77
2022/08/07 11:16:59;;;;;;;;;2.25;1.25;;;;;34.20;18.64;101407.50;4975478;28;45572;-76
2022/08/07 11:20:00;;;;;;;;;1.75;1.75;;;;;34.38;18.60;101408.28;4975687;28;45365;-77
2022/08/07 11:22:39;;;;;;;;;1.25;1.25;;;;;33.95;18.51;101404.66;4973123;28;45592;-76
2022/08/07 11:25:09;;;;;;;;;2.00;2.00;;;;;34.05;19.13;101397.16;4975540;28;45406;-78
2022/08/07 11:27:57;;;;;;;;;2.00;2.00;;;;;34.14;18.74;101395.31;4975444;28;46101;-77
2022/08/07 11:30:27;;;;;;;;;3.00;3.00;;;;;34.11;19.62;101391.00;4916091;28;45647;-77
2022/08/07 11:33:07;;;;;;;;;2.75;2.75;;;;;34.21;18.57;101403.72;4914379;28;45376;-77
2022/08/07 11:35:42;;;;;;;;;2.25;2.25;;;;;34.10;18.82;101403.03;4915226;28;45427;-76
2022/08/07 11:38:25;;;;;;;;;3.00;3.00;;;;;34.04;18.84;101389.94;4915211;28;46049;-76
2022/08/07 11:41:02;;;;;;;;;4.00;2.00;;;;;33.95;19.14;101390.94;4914467;28;45478;-77
2022/08/07 11:43:30;;;;;;;;;3.75;3.75;;;;;34.08;19.31;101380.38;4915136;28;45470;-77
2022/08/07 11:46:26;;;;;;;;;2.50;1.75;;;;;34.24;18.52;101373.22;4915230;28;45398;-76
2022/08/07 11:49:00;;;;;;;;;2.00;2.00;;;;;33.79;19.50;101381.63;4915003;28;46196;-77
2022/08/07 11:51:39;;;;;;;;;2.00;2.00;;;;;33.73;20.07;101379.56;4918619;28;45492;-76
2022/08/07 11:54:35;;;;;;;;;3.00;3.00;;;;;33.65;19.11;101376.75;4933823;28;45492;-77